sensor_id;sensor_type;location;lat;lon;timestamp;P1;durP1;ratioP1;P2;durP2;ratioP2
7761;SDS011;3925;48.636;9.516;2022-11-20T00:01:03;2.87;;;2.67;;
7761;SDS011;3925;48.636;9.516;2022-11-20T00:03:31;3.57;;;3.10;;
7761;SDS011;3925;48.636;9.516;2022-11-20T00:06:00;2.90;;;2.70;;
7761;SDS011;3925;48.636;9.516;2022-11-20T00:08:27;3.87;;;2.50;;
7761;SDS011;3925;48.636;9.516;2022-11-20T00:10:54;2.80;;;2.60;;
7761;SDS011;3925;48.636;9.516;2022-11-20T00:13:21;3.10;;;2.80;;
7761;SDS011;3925;48.636;9.516;2022-11-20T00:15:48;2.70;;;2.50;;
7761;SDS011;3925;48.636;9.516;2022-11-20T00:18:22;3.63;;;2.40;;
7761;SDS011;3925;48.636;9.516;2022-11-20T00:20:49;3.90;;;2.90;;
7761;SDS011;3925;48.636;9.516;2022-11-20T00:23:17;2.80;;;2.60;;
7761;SDS011;3925;48.636;9.516;2022-11-20T00:25:44;2.93;;;2.73;;
7761;SDS011;3925;48.636;9.516;2022-11-20T00:28:11;2.57;;;2.37;;
7761;SDS011;3925;48.636;9.516;2022-11-20T00:30:38;3.37;;;2.90;;
7761;SDS011;3925;48.636;9.516;2022-11-20T00:33:05;2.40;;;2.20;;
7761;SDS011;3925;48.636;9.516;2022-11-20T00:35:31;2.60;;;2.40;;
7761;SDS011;3925;48.636;9.516;2022-11-20T00:37:58;4.20;;;3.87;;
7761;SDS011;3925;48.636;9.516;2022-11-20T00:40:27;3.07;;;2.57;;
7761;SDS011;3925;48.636;9.516;2022-11-20T00:42:53;2.60;;;2.40;;
7761;SDS011;3925;48.636;9.516;2022-11-20T00:45:20;2.20;;;2.10;;
7761;SDS011;3925;48.636;9.516;2022-11-20T00:47:47;2.50;;;2.30;;
7761;SDS011;3925;48.636;9.516;2022-11-20T00:50:14;2.20;;;2.00;;
7761;SDS011;3925;48.636;9.516;2022-11-20T00:52:41;2.10;;;1.97;;
7761;SDS011;3925;48.636;9.516;2022-11-20T00:55:08;1.97;;;1.73;;
7761;SDS011;3925;48.636;9.516;2022-11-20T00:57:36;3.13;;;2.13;;
7761;SDS011;3925;48.636;9.516;2022-11-20T01:00:03;3.77;;;2.83;;
7761;SDS011;3925;48.636;9.516;2022-11-20T01:02:31;2.33;;;2.13;;
7761;SDS011;3925;48.636;9.516;2022-11-20T01:04:58;2.50;;;1.93;;
7761;SDS011;3925;48.636;9.516;2022-11-20T01:07:25;3.80;;;2.50;;
7761;SDS011;3925;48.636;9.516;2022-11-20T01:09:51;2.60;;;2.30;;
7761;SDS011;3925;48.636;9.516;2022-11-20T01:12:18;2.77;;;2.57;;
7761;SDS011;3925;48.636;9.516;2022-11-20T01:14:48;2.40;;;1.80;;
7761;SDS011;3925;48.636;9.516;2022-11-20T01:17:14;2.07;;;1.87;;
7761;SDS011;3925;48.636;9.516;2022-11-20T01:19:41;2.60;;;2.40;;
7761;SDS011;3925;48.636;9.516;2022-11-20T01:22:09;2.83;;;2.33;;
7761;SDS011;3925;48.636;9.516;2022-11-20T01:24:36;2.20;;;2.10;;
7761;SDS011;3925;48.636;9.516;2022-11-20T01:27:02;2.67;;;2.03;;
7761;SDS011;3925;48.636;9.516;2022-11-20T01:29:29;2.80;;;2.23;;
7761;SDS011;3925;48.636;9.516;2022-11-20T01:31:57;3.03;;;2.00;;
7761;SDS011;3925;48.636;9.516;2022-11-20T01:34:24;2.90;;;2.70;;
7761;SDS011;3925;48.636;9.516;2022-11-20T01:36:51;2.97;;;2.27;;
7761;SDS011;3925;48.636;9.516;2022-11-20T01:39:20;2.70;;;2.50;;
7761;SDS011;3925;48.636;9.516;2022-11-20T01:41:48;3.43;;;2.47;;
7761;SDS011;3925;48.636;9.516;2022-11-20T01:47:30;2.20;;;2.00;;
7761;SDS011;3925;48.636;9.516;2022-11-20T01:50:03;2.50;;;2.27;;
7761;SDS011;3925;48.636;9.516;2022-11-20T01:52:33;2.33;;;2.23;;
7761;SDS011;3925;48.636;9.516;2022-11-20T01:55:04;2.27;;;2.13;;
7761;SDS011;3925;48.636;9.516;2022-11-20T01:57:33;2.43;;;2.27;;
7761;SDS011;3925;48.636;9.516;2022-11-20T02:00:03;2.67;;;2.47;;
7761;SDS011;3925;48.636;9.516;2022-11-20T02:02:34;2.23;;;1.80;;
7761;SDS011;3925;48.636;9.516;2022-11-20T02:05:02;3.13;;;2.93;;
7761;SDS011;3925;48.636;9.516;2022-11-20T02:07:45;2.97;;;2.77;;
7761;SDS011;3925;48.636;9.516;2022-11-20T02:10:13;3.87;;;2.50;;
7761;SDS011;3925;48.636;9.516;2022-11-20T02:12:40;2.90;;;2.70;;
7761;SDS011;3925;48.636;9.516;2022-11-20T02:15:25;2.77;;;2.57;;
7761;SDS011;3925;48.636;9.516;2022-11-20T02:17:53;2.80;;;2.50;;
7761;SDS011;3925;48.636;9.516;2022-11-20T02:20:20;3.17;;;2.87;;
7761;SDS011;3925;48.636;9.516;2022-11-20T02:22:48;3.50;;;3.13;;
7761;SDS011;3925;48.636;9.516;2022-11-20T02:25:24;3.47;;;3.20;;
7761;SDS011;3925;48.636;9.516;2022-11-20T02:27:53;2.73;;;2.57;;
7761;SDS011;3925;48.636;9.516;2022-11-20T02:30:20;3.30;;;2.50;;
7761;SDS011;3925;48.636;9.516;2022-11-20T02:32:47;2.63;;;2.43;;
7761;SDS011;3925;48.636;9.516;2022-11-20T02:38:07;3.73;;;2.60;;
7761;SDS011;3925;48.636;9.516;2022-11-20T02:40:36;2.80;;;2.60;;
7761;SDS011;3925;48.636;9.516;2022-11-20T02:43:03;2.57;;;2.37;;
7761;SDS011;3925;48.636;9.516;2022-11-20T02:45:29;3.03;;;2.73;;
7761;SDS011;3925;48.636;9.516;2022-11-20T02:47:56;2.80;;;2.60;;
7761;SDS011;3925;48.636;9.516;2022-11-20T02:50:23;2.83;;;2.63;;
7761;SDS011;3925;48.636;9.516;2022-11-20T02:52:50;3.20;;;2.90;;
7761;SDS011;3925;48.636;9.516;2022-11-20T02:55:17;3.10;;;2.63;;
7761;SDS011;3925;48.636;9.516;2022-11-20T02:57:45;3.07;;;2.87;;
7761;SDS011;3925;48.636;9.516;2022-11-20T03:00:13;2.80;;;2.50;;
7761;SDS011;3925;48.636;9.516;2022-11-20T03:02:40;2.30;;;2.10;;
7761;SDS011;3925;48.636;9.516;2022-11-20T03:05:07;3.23;;;2.80;;
7761;SDS011;3925;48.636;9.516;2022-11-20T03:07:34;3.40;;;2.17;;
7761;SDS011;3925;48.636;9.516;2022-11-20T03:10:01;2.23;;;2.10;;
7761;SDS011;3925;48.636;9.516;2022-11-20T03:12:28;2.70;;;2.43;;
7761;SDS011;3925;48.636;9.516;2022-11-20T03:14:56;4.13;;;2.20;;
7761;SDS011;3925;48.636;9.516;2022-11-20T03:17:22;2.30;;;2.10;;
7761;SDS011;3925;48.636;9.516;2022-11-20T03:19:49;3.03;;;2.23;;
7761;SDS011;3925;48.636;9.516;2022-11-20T03:22:16;1.97;;;1.87;;
7761;SDS011;3925;48.636;9.516;2022-11-20T03:24:43;3.37;;;2.07;;
7761;SDS011;3925;48.636;9.516;2022-11-20T03:27:10;2.80;;;2.13;;
7761;SDS011;3925;48.636;9.516;2022-11-20T03:29:37;2.90;;;1.80;;
7761;SDS011;3925;48.636;9.516;2022-11-20T03:32:05;2.53;;;2.33;;
7761;SDS011;3925;48.636;9.516;2022-11-20T03:34:32;1.70;;;1.47;;
7761;SDS011;3925;48.636;9.516;2022-11-20T03:36:59;2.00;;;1.90;;
7761;SDS011;3925;48.636;9.516;2022-11-20T03:39:26;1.97;;;1.77;;
7761;SDS011;3925;48.636;9.516;2022-11-20T03:41:53;2.50;;;2.30;;
7761;SDS011;3925;48.636;9.516;2022-11-20T03:44:20;2.80;;;2.00;;
7761;SDS011;3925;48.636;9.516;2022-11-20T03:46:47;2.83;;;2.37;;
7761;SDS011;3925;48.636;9.516;2022-11-20T03:49:15;3.03;;;1.97;;
7761;SDS011;3925;48.636;9.516;2022-11-20T03:51:42;2.20;;;1.77;;
7761;SDS011;3925;48.636;9.516;2022-11-20T03:54:09;1.43;;;1.33;;
7761;SDS011;3925;48.636;9.516;2022-11-20T03:56:37;1.70;;;1.60;;
7761;SDS011;3925;48.636;9.516;2022-11-20T03:59:04;2.23;;;2.10;;
7761;SDS011;3925;48.636;9.516;2022-11-20T04:01:32;2.30;;;2.10;;
7761;SDS011;3925;48.636;9.516;2022-11-20T04:04:01;3.13;;;1.90;;
7761;SDS011;3925;48.636;9.516;2022-11-20T04:06:30;2.03;;;1.73;;
7761;SDS011;3925;48.636;9.516;2022-11-20T04:09:00;3.80;;;2.00;;
7761;SDS011;3925;48.636;9.516;2022-11-20T04:11:27;2.00;;;1.50;;
7761;SDS011;3925;48.636;9.516;2022-11-20T04:13:55;1.30;;;1.20;;
7761;SDS011;3925;48.636;9.516;2022-11-20T04:16:24;1.97;;;1.87;;
7761;SDS011;3925;48.636;9.516;2022-11-20T04:18:52;1.63;;;1.53;;
7761;SDS011;3925;48.636;9.516;2022-11-20T04:21:19;2.17;;;1.60;;
7761;SDS011;3925;48.636;9.516;2022-11-20T04:23:47;1.87;;;1.70;;
7761;SDS011;3925;48.636;9.516;2022-11-20T04:26:14;1.40;;;1.30;;
7761;SDS011;3925;48.636;9.516;2022-11-20T04:28:41;2.50;;;2.00;;
7761;SDS011;3925;48.636;9.516;2022-11-20T04:31:09;1.77;;;1.67;;
7761;SDS011;3925;48.636;9.516;2022-11-20T04:33:37;1.77;;;1.67;;
7761;SDS011;3925;48.636;9.516;2022-11-20T04:36:04;3.33;;;1.80;;
7761;SDS011;3925;48.636;9.516;2022-11-20T04:38:33;1.90;;;1.80;;
7761;SDS011;3925;48.636;9.516;2022-11-20T04:41:02;1.77;;;1.67;;
7761;SDS011;3925;48.636;9.516;2022-11-20T04:43:31;2.07;;;1.97;;
7761;SDS011;3925;48.636;9.516;2022-11-20T04:45:58;1.57;;;1.47;;
7761;SDS011;3925;48.636;9.516;2022-11-20T04:48:27;1.60;;;1.50;;
7761;SDS011;3925;48.636;9.516;2022-11-20T04:50:54;2.27;;;1.70;;
7761;SDS011;3925;48.636;9.516;2022-11-20T04:53:22;2.20;;;1.50;;
7761;SDS011;3925;48.636;9.516;2022-11-20T04:55:49;2.50;;;2.13;;
7761;SDS011;3925;48.636;9.516;2022-11-20T04:58:17;1.60;;;1.50;;
7761;SDS011;3925;48.636;9.516;2022-11-20T05:00:44;2.57;;;2.00;;
7761;SDS011;3925;48.636;9.516;2022-11-20T05:03:11;3.33;;;1.60;;
7761;SDS011;3925;48.636;9.516;2022-11-20T05:05:37;1.23;;;1.23;;
7761;SDS011;3925;48.636;9.516;2022-11-20T05:08:04;2.50;;;1.93;;
7761;SDS011;3925;48.636;9.516;2022-11-20T05:10:31;1.60;;;1.50;;
7761;SDS011;3925;48.636;9.516;2022-11-20T05:12:58;2.10;;;2.00;;
7761;SDS011;3925;48.636;9.516;2022-11-20T05:15:26;3.07;;;1.50;;
7761;SDS011;3925;48.636;9.516;2022-11-20T05:17:53;2.17;;;1.60;;
7761;SDS011;3925;48.636;9.516;2022-11-20T05:20:20;1.77;;;1.67;;
7761;SDS011;3925;48.636;9.516;2022-11-20T05:22:47;2.20;;;1.47;;
7761;SDS011;3925;48.636;9.516;2022-11-20T05:25:13;1.30;;;1.20;;
7761;SDS011;3925;48.636;9.516;2022-11-20T05:27:40;2.13;;;1.83;;
7761;SDS011;3925;48.636;9.516;2022-11-20T05:30:08;2.00;;;1.43;;
7761;SDS011;3925;48.636;9.516;2022-11-20T05:32:37;1.63;;;1.53;;
7761;SDS011;3925;48.636;9.516;2022-11-20T05:35:04;1.67;;;1.53;;
7761;SDS011;3925;48.636;9.516;2022-11-20T05:37:31;1.60;;;1.40;;
7761;SDS011;3925;48.636;9.516;2022-11-20T05:39:58;2.50;;;2.30;;
7761;SDS011;3925;48.636;9.516;2022-11-20T05:42:25;1.77;;;1.63;;
7761;SDS011;3925;48.636;9.516;2022-11-20T05:44:58;1.60;;;1.33;;
7761;SDS011;3925;48.636;9.516;2022-11-20T05:47:26;2.60;;;1.30;;
7761;SDS011;3925;48.636;9.516;2022-11-20T05:49:55;1.27;;;1.20;;
7761;SDS011;3925;48.636;9.516;2022-11-20T05:52:22;1.50;;;1.40;;
7761;SDS011;3925;48.636;9.516;2022-11-20T05:54:49;1.50;;;1.40;;
7761;SDS011;3925;48.636;9.516;2022-11-20T05:57:15;1.90;;;1.80;;
7761;SDS011;3925;48.636;9.516;2022-11-20T05:59:42;1.60;;;1.17;;
7761;SDS011;3925;48.636;9.516;2022-11-20T06:02:09;1.43;;;1.33;;
7761;SDS011;3925;48.636;9.516;2022-11-20T06:04:36;1.87;;;1.57;;
7761;SDS011;3925;48.636;9.516;2022-11-20T06:07:05;1.30;;;1.20;;
7761;SDS011;3925;48.636;9.516;2022-11-20T06:09:32;2.70;;;1.60;;
7761;SDS011;3925;48.636;9.516;2022-11-20T06:11:59;1.67;;;1.57;;
7761;SDS011;3925;48.636;9.516;2022-11-20T06:14:26;1.40;;;1.23;;
7761;SDS011;3925;48.636;9.516;2022-11-20T06:16:53;1.37;;;1.27;;
7761;SDS011;3925;48.636;9.516;2022-11-20T06:19:20;2.40;;;1.60;;
7761;SDS011;3925;48.636;9.516;2022-11-20T06:21:47;1.70;;;1.60;;
7761;SDS011;3925;48.636;9.516;2022-11-20T06:24:15;1.80;;;1.43;;
7761;SDS011;3925;48.636;9.516;2022-11-20T06:26:43;2.30;;;1.83;;
7761;SDS011;3925;48.636;9.516;2022-11-20T06:29:10;1.67;;;1.57;;
7761;SDS011;3925;48.636;9.516;2022-11-20T06:31:37;2.63;;;1.40;;
7761;SDS011;3925;48.636;9.516;2022-11-20T06:34:04;1.67;;;1.30;;
7761;SDS011;3925;48.636;9.516;2022-11-20T06:36:32;3.43;;;1.33;;
7761;SDS011;3925;48.636;9.516;2022-11-20T06:38:59;1.00;;;1.00;;
7761;SDS011;3925;48.636;9.516;2022-11-20T06:41:27;1.50;;;1.40;;
7761;SDS011;3925;48.636;9.516;2022-11-20T06:43:54;2.80;;;1.80;;
7761;SDS011;3925;48.636;9.516;2022-11-20T06:46:21;1.60;;;1.50;;
7761;SDS011;3925;48.636;9.516;2022-11-20T06:48:48;1.57;;;1.47;;
7761;SDS011;3925;48.636;9.516;2022-11-20T06:51:16;1.50;;;1.40;;
7761;SDS011;3925;48.636;9.516;2022-11-20T06:53:43;1.83;;;1.73;;
7761;SDS011;3925;48.636;9.516;2022-11-20T06:56:10;1.57;;;1.47;;
7761;SDS011;3925;48.636;9.516;2022-11-20T06:58:38;1.40;;;1.30;;
7761;SDS011;3925;48.636;9.516;2022-11-20T07:01:06;1.43;;;1.37;;
7761;SDS011;3925;48.636;9.516;2022-11-20T07:03:34;1.90;;;1.60;;
7761;SDS011;3925;48.636;9.516;2022-11-20T07:06:01;3.83;;;1.73;;
7761;SDS011;3925;48.636;9.516;2022-11-20T07:08:29;1.93;;;1.60;;
7761;SDS011;3925;48.636;9.516;2022-11-20T07:10:56;4.33;;;1.80;;
7761;SDS011;3925;48.636;9.516;2022-11-20T07:13:24;2.03;;;1.40;;
7761;SDS011;3925;48.636;9.516;2022-11-20T07:15:52;3.40;;;1.83;;
7761;SDS011;3925;48.636;9.516;2022-11-20T07:18:20;1.70;;;1.60;;
7761;SDS011;3925;48.636;9.516;2022-11-20T07:20:47;3.53;;;2.00;;
7761;SDS011;3925;48.636;9.516;2022-11-20T07:23:14;7.20;;;3.53;;
7761;SDS011;3925;48.636;9.516;2022-11-20T07:25:40;2.87;;;2.57;;
7761;SDS011;3925;48.636;9.516;2022-11-20T07:28:07;1.60;;;1.50;;
7761;SDS011;3925;48.636;9.516;2022-11-20T07:30:35;1.90;;;1.80;;
7761;SDS011;3925;48.636;9.516;2022-11-20T07:33:04;1.30;;;1.20;;
7761;SDS011;3925;48.636;9.516;2022-11-20T07:35:31;2.13;;;1.60;;
7761;SDS011;3925;48.636;9.516;2022-11-20T07:37:58;1.90;;;1.67;;
7761;SDS011;3925;48.636;9.516;2022-11-20T07:40:25;1.27;;;1.17;;
7761;SDS011;3925;48.636;9.516;2022-11-20T07:42:53;1.23;;;1.10;;
7761;SDS011;3925;48.636;9.516;2022-11-20T07:45:21;1.37;;;1.27;;
7761;SDS011;3925;48.636;9.516;2022-11-20T07:47:49;1.63;;;1.53;;
7761;SDS011;3925;48.636;9.516;2022-11-20T07:50:18;2.50;;;1.20;;
7761;SDS011;3925;48.636;9.516;2022-11-20T07:52:45;2.87;;;1.30;;
7761;SDS011;3925;48.636;9.516;2022-11-20T07:55:13;1.10;;;1.10;;
7761;SDS011;3925;48.636;9.516;2022-11-20T07:57:39;1.40;;;1.30;;
7761;SDS011;3925;48.636;9.516;2022-11-20T08:00:07;1.30;;;1.30;;
7761;SDS011;3925;48.636;9.516;2022-11-20T08:02:36;1.73;;;1.63;;
7761;SDS011;3925;48.636;9.516;2022-11-20T08:05:04;4.30;;;1.50;;
7761;SDS011;3925;48.636;9.516;2022-11-20T08:07:36;4.20;;;1.37;;
7761;SDS011;3925;48.636;9.516;2022-11-20T08:10:04;1.87;;;1.50;;
7761;SDS011;3925;48.636;9.516;2022-11-20T08:12:31;1.80;;;0.90;;
7761;SDS011;3925;48.636;9.516;2022-11-20T08:15:15;1.30;;;1.20;;
7761;SDS011;3925;48.636;9.516;2022-11-20T08:17:42;1.03;;;1.03;;
7761;SDS011;3925;48.636;9.516;2022-11-20T08:20:09;1.83;;;1.20;;
7761;SDS011;3925;48.636;9.516;2022-11-20T08:22:38;3.60;;;2.33;;
7761;SDS011;3925;48.636;9.516;2022-11-20T08:25:06;1.00;;;1.00;;
7761;SDS011;3925;48.636;9.516;2022-11-20T08:27:33;1.20;;;1.00;;
7761;SDS011;3925;48.636;9.516;2022-11-20T08:30:00;0.80;;;0.80;;
7761;SDS011;3925;48.636;9.516;2022-11-20T08:32:26;4.20;;;1.10;;
7761;SDS011;3925;48.636;9.516;2022-11-20T08:34:53;1.33;;;1.23;;
7761;SDS011;3925;48.636;9.516;2022-11-20T08:37:20;0.93;;;0.90;;
7761;SDS011;3925;48.636;9.516;2022-11-20T08:39:48;1.10;;;1.07;;
7761;SDS011;3925;48.636;9.516;2022-11-20T08:42:15;1.03;;;1.03;;
7761;SDS011;3925;48.636;9.516;2022-11-20T08:44:42;1.50;;;1.13;;
7761;SDS011;3925;48.636;9.516;2022-11-20T08:47:09;0.80;;;0.80;;
7761;SDS011;3925;48.636;9.516;2022-11-20T08:49:36;1.90;;;1.23;;
7761;SDS011;3925;48.636;9.516;2022-11-20T08:52:02;0.93;;;0.70;;
7761;SDS011;3925;48.636;9.516;2022-11-20T08:54:30;1.00;;;1.00;;
7761;SDS011;3925;48.636;9.516;2022-11-20T08:56:58;1.07;;;1.07;;
7761;SDS011;3925;48.636;9.516;2022-11-20T08:59:25;0.90;;;0.90;;
7761;SDS011;3925;48.636;9.516;2022-11-20T09:01:52;1.00;;;1.00;;
7761;SDS011;3925;48.636;9.516;2022-11-20T09:04:19;0.70;;;0.70;;
7761;SDS011;3925;48.636;9.516;2022-11-20T09:06:46;1.13;;;0.87;;
7761;SDS011;3925;48.636;9.516;2022-11-20T09:09:16;1.63;;;1.53;;
7761;SDS011;3925;48.636;9.516;2022-11-20T09:11:43;1.07;;;1.03;;
7761;SDS011;3925;48.636;9.516;2022-11-20T09:14:11;2.10;;;0.87;;
7761;SDS011;3925;48.636;9.516;2022-11-20T09:16:38;1.40;;;1.30;;
7761;SDS011;3925;48.636;9.516;2022-11-20T09:19:04;2.10;;;1.00;;
7761;SDS011;3925;48.636;9.516;2022-11-20T09:21:31;0.70;;;0.70;;
7761;SDS011;3925;48.636;9.516;2022-11-20T09:23:58;1.83;;;1.00;;
7761;SDS011;3925;48.636;9.516;2022-11-20T09:26:25;1.37;;;0.97;;
7761;SDS011;3925;48.636;9.516;2022-11-20T09:28:52;1.03;;;0.90;;
7761;SDS011;3925;48.636;9.516;2022-11-20T09:31:21;1.23;;;0.90;;
7761;SDS011;3925;48.636;9.516;2022-11-20T09:33:49;1.10;;;1.10;;
7761;SDS011;3925;48.636;9.516;2022-11-20T09:36:16;1.43;;;1.13;;
7761;SDS011;3925;48.636;9.516;2022-11-20T09:38:43;0.90;;;0.90;;
7761;SDS011;3925;48.636;9.516;2022-11-20T09:41:16;1.20;;;0.83;;
7761;SDS011;3925;48.636;9.516;2022-11-20T09:43:57;0.97;;;0.90;;
7761;SDS011;3925;48.636;9.516;2022-11-20T09:46:34;1.10;;;1.00;;
7761;SDS011;3925;48.636;9.516;2022-11-20T09:49:14;0.83;;;0.83;;
7761;SDS011;3925;48.636;9.516;2022-11-20T09:51:53;0.73;;;0.73;;
7761;SDS011;3925;48.636;9.516;2022-11-20T09:54:25;1.20;;;1.10;;
7761;SDS011;3925;48.636;9.516;2022-11-20T09:56:56;3.23;;;0.93;;
7761;SDS011;3925;48.636;9.516;2022-11-20T09:59:29;1.00;;;1.00;;
7761;SDS011;3925;48.636;9.516;2022-11-20T10:02:01;1.07;;;0.97;;
7761;SDS011;3925;48.636;9.516;2022-11-20T10:04:38;0.87;;;0.87;;
7761;SDS011;3925;48.636;9.516;2022-11-20T10:07:11;1.87;;;1.40;;
7761;SDS011;3925;48.636;9.516;2022-11-20T10:09:47;1.10;;;1.10;;
7761;SDS011;3925;48.636;9.516;2022-11-20T10:12:18;3.50;;;2.03;;
7761;SDS011;3925;48.636;9.516;2022-11-20T10:14:54;1.50;;;1.37;;
7761;SDS011;3925;48.636;9.516;2022-11-20T10:17:34;1.20;;;1.10;;
7761;SDS011;3925;48.636;9.516;2022-11-20T10:20:20;1.27;;;1.17;;
7761;SDS011;3925;48.636;9.516;2022-11-20T10:22:58;1.73;;;1.10;;
7761;SDS011;3925;48.636;9.516;2022-11-20T10:25:33;1.43;;;1.03;;
7761;SDS011;3925;48.636;9.516;2022-11-20T10:31:06;2.37;;;2.17;;
7761;SDS011;3925;48.636;9.516;2022-11-20T10:33:38;2.10;;;1.93;;
7761;SDS011;3925;48.636;9.516;2022-11-20T10:36:12;1.53;;;1.43;;
7761;SDS011;3925;48.636;9.516;2022-11-20T10:38:44;1.00;;;1.00;;
7761;SDS011;3925;48.636;9.516;2022-11-20T10:41:16;0.93;;;0.93;;
7761;SDS011;3925;48.636;9.516;2022-11-20T10:43:53;1.33;;;1.23;;
7761;SDS011;3925;48.636;9.516;2022-11-20T10:46:26;0.97;;;0.77;;
7761;SDS011;3925;48.636;9.516;2022-11-20T10:49:12;1.10;;;0.83;;
7761;SDS011;3925;48.636;9.516;2022-11-20T10:51:43;3.37;;;1.20;;
7761;SDS011;3925;48.636;9.516;2022-11-20T10:54:25;1.00;;;1.00;;
7761;SDS011;3925;48.636;9.516;2022-11-20T10:57:00;1.00;;;1.00;;
7761;SDS011;3925;48.636;9.516;2022-11-20T10:59:41;0.90;;;0.90;;
7761;SDS011;3925;48.636;9.516;2022-11-20T11:02:21;1.27;;;1.20;;
7761;SDS011;3925;48.636;9.516;2022-11-20T11:04:51;1.33;;;1.23;;
7761;SDS011;3925;48.636;9.516;2022-11-20T11:07:21;1.10;;;1.00;;
7761;SDS011;3925;48.636;9.516;2022-11-20T11:09:50;1.27;;;1.17;;
7761;SDS011;3925;48.636;9.516;2022-11-20T11:12:19;1.10;;;1.00;;
7761;SDS011;3925;48.636;9.516;2022-11-20T11:14:48;0.97;;;0.97;;
7761;SDS011;3925;48.636;9.516;2022-11-20T11:17:20;1.13;;;1.13;;
7761;SDS011;3925;48.636;9.516;2022-11-20T11:20:03;0.90;;;0.90;;
7761;SDS011;3925;48.636;9.516;2022-11-20T11:22:42;1.10;;;1.00;;
7761;SDS011;3925;48.636;9.516;2022-11-20T11:25:18;1.40;;;1.30;;
7761;SDS011;3925;48.636;9.516;2022-11-20T11:27:48;0.87;;;0.87;;
7761;SDS011;3925;48.636;9.516;2022-11-20T11:30:17;1.47;;;1.00;;
7761;SDS011;3925;48.636;9.516;2022-11-20T11:32:46;1.03;;;1.03;;
7761;SDS011;3925;48.636;9.516;2022-11-20T11:35:24;1.03;;;0.93;;
7761;SDS011;3925;48.636;9.516;2022-11-20T11:37:54;0.80;;;0.80;;
7761;SDS011;3925;48.636;9.516;2022-11-20T11:40:29;1.40;;;1.17;;
7761;SDS011;3925;48.636;9.516;2022-11-20T11:42:59;0.77;;;0.77;;
7761;SDS011;3925;48.636;9.516;2022-11-20T11:45:28;1.63;;;0.80;;
7761;SDS011;3925;48.636;9.516;2022-11-20T11:47:54;1.23;;;1.13;;
7761;SDS011;3925;48.636;9.516;2022-11-20T11:50:25;1.13;;;1.10;;
7761;SDS011;3925;48.636;9.516;2022-11-20T11:52:57;2.87;;;1.00;;
7761;SDS011;3925;48.636;9.516;2022-11-20T11:55:34;1.20;;;1.10;;
7761;SDS011;3925;48.636;9.516;2022-11-20T11:58:09;1.33;;;1.23;;
7761;SDS011;3925;48.636;9.516;2022-11-20T12:00:49;1.00;;;1.00;;
7761;SDS011;3925;48.636;9.516;2022-11-20T12:03:22;1.10;;;1.00;;
7761;SDS011;3925;48.636;9.516;2022-11-20T12:05:56;1.30;;;1.20;;
7761;SDS011;3925;48.636;9.516;2022-11-20T12:08:26;0.93;;;0.90;;
7761;SDS011;3925;48.636;9.516;2022-11-20T12:10:59;1.20;;;1.10;;
7761;SDS011;3925;48.636;9.516;2022-11-20T12:13:44;1.50;;;1.40;;
7761;SDS011;3925;48.636;9.516;2022-11-20T12:16:18;1.07;;;1.00;;
7761;SDS011;3925;48.636;9.516;2022-11-20T12:18:46;2.03;;;1.10;;
7761;SDS011;3925;48.636;9.516;2022-11-20T12:21:20;0.80;;;0.80;;
7761;SDS011;3925;48.636;9.516;2022-11-20T12:26:45;1.23;;;0.90;;
7761;SDS011;3925;48.636;9.516;2022-11-20T12:29:26;2.63;;;0.90;;
7761;SDS011;3925;48.636;9.516;2022-11-20T12:32:06;1.10;;;1.07;;
7761;SDS011;3925;48.636;9.516;2022-11-20T12:34:56;1.50;;;1.00;;
7761;SDS011;3925;48.636;9.516;2022-11-20T12:37:35;0.87;;;0.87;;
7761;SDS011;3925;48.636;9.516;2022-11-20T12:40:16;1.57;;;1.07;;
7761;SDS011;3925;48.636;9.516;2022-11-20T12:42:56;2.60;;;1.53;;
7761;SDS011;3925;48.636;9.516;2022-11-20T12:45:53;3.00;;;1.27;;
7761;SDS011;3925;48.636;9.516;2022-11-20T12:48:33;1.00;;;1.00;;
7761;SDS011;3925;48.636;9.516;2022-11-20T12:51:28;3.03;;;1.13;;
7761;SDS011;3925;48.636;9.516;2022-11-20T12:54:25;0.83;;;0.83;;
7761;SDS011;3925;48.636;9.516;2022-11-20T12:57:03;1.37;;;1.27;;
7761;SDS011;3925;48.636;9.516;2022-11-20T12:59:38;1.40;;;0.83;;
7761;SDS011;3925;48.636;9.516;2022-11-20T13:02:23;1.67;;;1.20;;
7761;SDS011;3925;48.636;9.516;2022-11-20T13:05:06;1.37;;;1.13;;
7761;SDS011;3925;48.636;9.516;2022-11-20T13:07:44;1.90;;;1.10;;
7761;SDS011;3925;48.636;9.516;2022-11-20T13:10:16;1.90;;;0.90;;
7761;SDS011;3925;48.636;9.516;2022-11-20T13:12:49;1.80;;;0.73;;
7761;SDS011;3925;48.636;9.516;2022-11-20T13:15:26;0.90;;;0.90;;
7761;SDS011;3925;48.636;9.516;2022-11-20T13:18:02;0.80;;;0.77;;
7761;SDS011;3925;48.636;9.516;2022-11-20T13:20:34;1.00;;;1.00;;
7761;SDS011;3925;48.636;9.516;2022-11-20T13:23:02;1.20;;;1.10;;
7761;SDS011;3925;48.636;9.516;2022-11-20T13:25:31;1.27;;;1.17;;
7761;SDS011;3925;48.636;9.516;2022-11-20T13:28:00;1.50;;;0.90;;
7761;SDS011;3925;48.636;9.516;2022-11-20T13:30:30;2.80;;;1.03;;
7761;SDS011;3925;48.636;9.516;2022-11-20T13:32:58;1.53;;;0.90;;
7761;SDS011;3925;48.636;9.516;2022-11-20T13:35:31;1.33;;;1.23;;
7761;SDS011;3925;48.636;9.516;2022-11-20T13:38:01;2.70;;;1.97;;
7761;SDS011;3925;48.636;9.516;2022-11-20T13:40:32;2.30;;;1.27;;
7761;SDS011;3925;48.636;9.516;2022-11-20T13:43:02;1.60;;;1.50;;
7761;SDS011;3925;48.636;9.516;2022-11-20T13:45:36;1.47;;;1.13;;
7761;SDS011;3925;48.636;9.516;2022-11-20T13:48:04;1.57;;;0.73;;
7761;SDS011;3925;48.636;9.516;2022-11-20T13:50:46;2.20;;;1.30;;
7761;SDS011;3925;48.636;9.516;2022-11-20T13:53:25;1.53;;;1.00;;
7761;SDS011;3925;48.636;9.516;2022-11-20T13:56:07;1.07;;;0.97;;
7761;SDS011;3925;48.636;9.516;2022-11-20T13:58:43;0.70;;;0.70;;
7761;SDS011;3925;48.636;9.516;2022-11-20T14:01:19;1.13;;;0.60;;
7761;SDS011;3925;48.636;9.516;2022-11-20T14:03:49;0.60;;;0.60;;
7761;SDS011;3925;48.636;9.516;2022-11-20T14:06:20;0.80;;;0.80;;
7761;SDS011;3925;48.636;9.516;2022-11-20T14:08:53;0.93;;;0.87;;
7761;SDS011;3925;48.636;9.516;2022-11-20T14:11:23;1.17;;;0.80;;
7761;SDS011;3925;48.636;9.516;2022-11-20T14:13:55;2.97;;;1.13;;
7761;SDS011;3925;48.636;9.516;2022-11-20T14:16:24;1.20;;;1.10;;
7761;SDS011;3925;48.636;9.516;2022-11-20T14:18:53;1.33;;;1.10;;
7761;SDS011;3925;48.636;9.516;2022-11-20T14:21:21;0.90;;;0.90;;
7761;SDS011;3925;48.636;9.516;2022-11-20T14:23:51;0.70;;;0.60;;
7761;SDS011;3925;48.636;9.516;2022-11-20T14:26:20;2.63;;;0.70;;
7761;SDS011;3925;48.636;9.516;2022-11-20T14:28:49;0.90;;;0.90;;
7761;SDS011;3925;48.636;9.516;2022-11-20T14:31:19;2.80;;;0.90;;
7761;SDS011;3925;48.636;9.516;2022-11-20T14:33:50;1.90;;;1.00;;
7761;SDS011;3925;48.636;9.516;2022-11-20T14:36:18;0.77;;;0.77;;
7761;SDS011;3925;48.636;9.516;2022-11-20T14:38:47;0.67;;;0.67;;
7761;SDS011;3925;48.636;9.516;2022-11-20T14:41:17;1.90;;;0.90;;
7761;SDS011;3925;48.636;9.516;2022-11-20T14:43:46;0.90;;;0.90;;
7761;SDS011;3925;48.636;9.516;2022-11-20T14:46:17;1.93;;;1.03;;
7761;SDS011;3925;48.636;9.516;2022-11-20T14:48:45;1.30;;;0.80;;
7761;SDS011;3925;48.636;9.516;2022-11-20T14:51:23;1.30;;;1.23;;
7761;SDS011;3925;48.636;9.516;2022-11-20T14:53:54;1.43;;;0.70;;
7761;SDS011;3925;48.636;9.516;2022-11-20T14:56:21;1.00;;;1.00;;
7761;SDS011;3925;48.636;9.516;2022-11-20T14:58:56;2.13;;;1.17;;
7761;SDS011;3925;48.636;9.516;2022-11-20T15:01:27;1.60;;;1.20;;
7761;SDS011;3925;48.636;9.516;2022-11-20T15:04:04;1.60;;;1.20;;
7761;SDS011;3925;48.636;9.516;2022-11-20T15:06:34;4.23;;;1.00;;
7761;SDS011;3925;48.636;9.516;2022-11-20T15:09:01;1.40;;;1.30;;
7761;SDS011;3925;48.636;9.516;2022-11-20T15:11:31;2.37;;;1.40;;
7761;SDS011;3925;48.636;9.516;2022-11-20T15:14:02;1.37;;;1.27;;
7761;SDS011;3925;48.636;9.516;2022-11-20T15:16:31;2.10;;;1.40;;
7761;SDS011;3925;48.636;9.516;2022-11-20T15:18:58;3.47;;;3.10;;
7761;SDS011;3925;48.636;9.516;2022-11-20T15:21:28;8.20;;;4.07;;
7761;SDS011;3925;48.636;9.516;2022-11-20T15:23:55;6.07;;;3.87;;
7761;SDS011;3925;48.636;9.516;2022-11-20T15:26:24;5.30;;;3.50;;
7761;SDS011;3925;48.636;9.516;2022-11-20T15:28:53;3.03;;;2.73;;
7761;SDS011;3925;48.636;9.516;2022-11-20T15:31:22;3.37;;;2.80;;
7761;SDS011;3925;48.636;9.516;2022-11-20T15:33:49;3.13;;;2.80;;
7761;SDS011;3925;48.636;9.516;2022-11-20T15:36:16;2.67;;;2.47;;
7761;SDS011;3925;48.636;9.516;2022-11-20T15:38:43;3.60;;;3.30;;
7761;SDS011;3925;48.636;9.516;2022-11-20T15:41:10;7.20;;;3.53;;
7761;SDS011;3925;48.636;9.516;2022-11-20T15:43:37;4.00;;;3.67;;